sensor_id;sensor_type;location;lat;lon;timestamp;temperature;humidity
77693;SHT31;66984;47.404;18.836;2023-03-20T00:00:59;12.61;44.92
77693;SHT31;66984;47.404;18.836;2023-03-20T00:02:03;12.57;45.05
77693;SHT31;66984;47.404;18.836;2023-03-20T00:03:10;12.48;45.07
77693;SHT31;66984;47.404;18.836;2023-03-20T00:04:13;12.42;45.28
77693;SHT31;66984;47.404;18.836;2023-03-20T00:05:18;12.41;45.30
77693;SHT31;66984;47.404;18.836;2023-03-20T00:06:24;12.38;45.52
77693;SHT31;66984;47.404;18.836;2023-03-20T00:07:27;12.38;45.41
77693;SHT31;66984;47.404;18.836;2023-03-20T00:08:30;12.34;45.60
77693;SHT31;66984;47.404;18.836;2023-03-20T00:09:33;12.33;45.43
77693;SHT31;66984;47.404;18.836;2023-03-20T00:10:42;12.34;45.56
77693;SHT31;66984;47.404;18.836;2023-03-20T00:11:49;12.31;45.37
77693;SHT31;66984;47.404;18.836;2023-03-20T00:12:53;12.33;45.48
77693;SHT31;66984;47.404;18.836;2023-03-20T00:14:20;12.37;45.67
77693;SHT31;66984;47.404;18.836;2023-03-20T00:16:26;12.36;45.48
77693;SHT31;66984;47.404;18.836;2023-03-20T00:17:29;12.38;45.50
77693;SHT31;66984;47.404;18.836;2023-03-20T00:18:31;12.40;45.46
77693;SHT31;66984;47.404;18.836;2023-03-20T00:19:34;12.41;45.42
77693;SHT31;66984;47.404;18.836;2023-03-20T00:20:37;12.41;45.44
77693;SHT31;66984;47.404;18.836;2023-03-20T00:21:39;12.41;45.32
77693;SHT31;66984;47.404;18.836;2023-03-20T00:22:42;12.44;45.50
77693;SHT31;66984;47.404;18.836;2023-03-20T00:23:45;12.44;45.75
77693;SHT31;66984;47.404;18.836;2023-03-20T00:24:49;12.42;45.42
77693;SHT31;66984;47.404;18.836;2023-03-20T00:25:52;12.45;45.39
77693;SHT31;66984;47.404;18.836;2023-03-20T00:26:54;12.38;45.95
77693;SHT31;66984;47.404;18.836;2023-03-20T00:27:57;12.41;46.03
77693;SHT31;66984;47.404;18.836;2023-03-20T00:29:03;12.41;46.07
77693;SHT31;66984;47.404;18.836;2023-03-20T00:30:29;12.44;45.99
77693;SHT31;66984;47.404;18.836;2023-03-20T00:31:37;12.42;45.86
77693;SHT31;66984;47.404;18.836;2023-03-20T00:32:40;12.40;45.46
77693;SHT31;66984;47.404;18.836;2023-03-20T00:33:43;12.42;45.55
77693;SHT31;66984;47.404;18.836;2023-03-20T00:34:46;12.42;45.97
77693;SHT31;66984;47.404;18.836;2023-03-20T00:35:49;12.40;46.12
77693;SHT31;66984;47.404;18.836;2023-03-20T00:36:53;12.38;46.40
77693;SHT31;66984;47.404;18.836;2023-03-20T00:37:56;12.38;46.43
77693;SHT31;66984;47.404;18.836;2023-03-20T00:38:59;12.37;46.49
77693;SHT31;66984;47.404;18.836;2023-03-20T00:40:03;12.40;46.67
77693;SHT31;66984;47.404;18.836;2023-03-20T00:42:31;12.42;47.09
77693;SHT31;66984;47.404;18.836;2023-03-20T00:43:34;12.42;47.05
77693;SHT31;66984;47.404;18.836;2023-03-20T00:44:47;12.41;46.87
77693;SHT31;66984;47.404;18.836;2023-03-20T00:45:50;12.41;46.73
77693;SHT31;66984;47.404;18.836;2023-03-20T00:46:56;12.40;46.65
77693;SHT31;66984;47.404;18.836;2023-03-20T00:48:00;12.41;46.61
77693;SHT31;66984;47.404;18.836;2023-03-20T00:49:03;12.36;46.34
77693;SHT31;66984;47.404;18.836;2023-03-20T00:50:14;12.37;46.50
77693;SHT31;66984;47.404;18.836;2023-03-20T00:51:18;12.37;46.63
77693;SHT31;66984;47.404;18.836;2023-03-20T00:52:21;12.36;46.69
77693;SHT31;66984;47.404;18.836;2023-03-20T00:53:24;12.31;46.78
77693;SHT31;66984;47.404;18.836;2023-03-20T00:54:27;12.31;46.86
77693;SHT31;66984;47.404;18.836;2023-03-20T00:55:30;12.31;47.02
77693;SHT31;66984;47.404;18.836;2023-03-20T00:56:42;12.31;47.00
77693;SHT31;66984;47.404;18.836;2023-03-20T00:57:53;12.27;47.08
77693;SHT31;66984;47.404;18.836;2023-03-20T00:58:58;12.29;47.20
77693;SHT31;66984;47.404;18.836;2023-03-20T01:00:12;12.27;47.42
77693;SHT31;66984;47.404;18.836;2023-03-20T01:01:20;12.24;47.28
77693;SHT31;66984;47.404;18.836;2023-03-20T01:02:25;12.26;47.24
77693;SHT31;66984;47.404;18.836;2023-03-20T01:03:30;12.24;47.29
77693;SHT31;66984;47.404;18.836;2023-03-20T01:04:36;12.24;47.37
77693;SHT31;66984;47.404;18.836;2023-03-20T01:05:39;12.21;47.52
77693;SHT31;66984;47.404;18.836;2023-03-20T01:06:43;12.21;47.85
77693;SHT31;66984;47.404;18.836;2023-03-20T01:07:46;12.21;47.88
77693;SHT31;66984;47.404;18.836;2023-03-20T01:08:49;12.20;47.51
77693;SHT31;66984;47.404;18.836;2023-03-20T01:09:52;12.21;47.31
77693;SHT31;66984;47.404;18.836;2023-03-20T01:10:57;12.21;47.28
77693;SHT31;66984;47.404;18.836;2023-03-20T01:12:00;12.21;47.49
77693;SHT31;66984;47.404;18.836;2023-03-20T01:13:05;12.21;47.39
77693;SHT31;66984;47.404;18.836;2023-03-20T01:14:13;12.20;47.70
77693;SHT31;66984;47.404;18.836;2023-03-20T01:15:20;12.20;47.79
77693;SHT31;66984;47.404;18.836;2023-03-20T01:16:25;12.17;47.77
77693;SHT31;66984;47.404;18.836;2023-03-20T01:17:28;12.20;47.75
77693;SHT31;66984;47.404;18.836;2023-03-20T01:18:31;12.17;47.73
77693;SHT31;66984;47.404;18.836;2023-03-20T01:19:34;12.20;47.79
77693;SHT31;66984;47.404;18.836;2023-03-20T01:20:38;12.20;47.56
77693;SHT31;66984;47.404;18.836;2023-03-20T01:21:41;12.20;47.33
77693;SHT31;66984;47.404;18.836;2023-03-20T01:22:44;12.10;47.15
77693;SHT31;66984;47.404;18.836;2023-03-20T01:23:48;12.13;47.02
77693;SHT31;66984;47.404;18.836;2023-03-20T01:24:51;12.10;47.17
77693;SHT31;66984;47.404;18.836;2023-03-20T01:25:53;12.10;47.38
77693;SHT31;66984;47.404;18.836;2023-03-20T01:26:56;12.14;47.59
77693;SHT31;66984;47.404;18.836;2023-03-20T01:27:59;12.13;47.70
77693;SHT31;66984;47.404;18.836;2023-03-20T01:29:04;12.12;47.61
77693;SHT31;66984;47.404;18.836;2023-03-20T01:30:18;12.10;47.79
77693;SHT31;66984;47.404;18.836;2023-03-20T01:31:22;12.14;47.91
77693;SHT31;66984;47.404;18.836;2023-03-20T01:32:25;12.16;48.13
77693;SHT31;66984;47.404;18.836;2023-03-20T01:33:27;12.10;48.18
77693;SHT31;66984;47.404;18.836;2023-03-20T01:34:30;12.12;48.28
77693;SHT31;66984;47.404;18.836;2023-03-20T01:35:33;12.06;48.42
77693;SHT31;66984;47.404;18.836;2023-03-20T01:36:37;12.04;48.40
77693;SHT31;66984;47.404;18.836;2023-03-20T01:37:40;12.04;48.56
77693;SHT31;66984;47.404;18.836;2023-03-20T01:38:43;11.99;49.18
77693;SHT31;66984;47.404;18.836;2023-03-20T01:39:46;12.01;49.24
77693;SHT31;66984;47.404;18.836;2023-03-20T01:41:55;11.92;49.16
77693;SHT31;66984;47.404;18.836;2023-03-20T01:42:58;11.90;49.00
77693;SHT31;66984;47.404;18.836;2023-03-20T01:44:14;11.90;49.09
77693;SHT31;66984;47.404;18.836;2023-03-20T01:45:21;11.89;49.05
77693;SHT31;66984;47.404;18.836;2023-03-20T01:46:29;11.87;49.18
77693;SHT31;66984;47.404;18.836;2023-03-20T01:47:33;11.86;49.04
77693;SHT31;66984;47.404;18.836;2023-03-20T01:48:57;11.86;48.95
77693;SHT31;66984;47.404;18.836;2023-03-20T01:50:21;11.78;49.20
77693;SHT31;66984;47.404;18.836;2023-03-20T01:51:29;11.82;48.95
77693;SHT31;66984;47.404;18.836;2023-03-20T01:52:34;11.82;48.94
77693;SHT31;66984;47.404;18.836;2023-03-20T01:53:37;11.80;49.16
77693;SHT31;66984;47.404;18.836;2023-03-20T01:54:39;11.80;49.19
77693;SHT31;66984;47.404;18.836;2023-03-20T01:55:43;11.83;49.42
77693;SHT31;66984;47.404;18.836;2023-03-20T01:56:57;11.83;49.22
77693;SHT31;66984;47.404;18.836;2023-03-20T01:58:06;11.79;48.97
77693;SHT31;66984;47.404;18.836;2023-03-20T01:59:15;11.79;49.26
77693;SHT31;66984;47.404;18.836;2023-03-20T02:00:19;11.80;49.06
77693;SHT31;66984;47.404;18.836;2023-03-20T02:01:23;11.79;49.13
77693;SHT31;66984;47.404;18.836;2023-03-20T02:02:29;11.79;49.14
77693;SHT31;66984;47.404;18.836;2023-03-20T02:03:33;11.73;49.39
77693;SHT31;66984;47.404;18.836;2023-03-20T02:04:40;11.76;49.53
77693;SHT31;66984;47.404;18.836;2023-03-20T02:05:44;11.79;49.75
77693;SHT31;66984;47.404;18.836;2023-03-20T02:06:47;11.75;49.54
77693;SHT31;66984;47.404;18.836;2023-03-20T02:07:58;11.73;49.70
77693;SHT31;66984;47.404;18.836;2023-03-20T02:09:03;11.72;49.62
77693;SHT31;66984;47.404;18.836;2023-03-20T02:10:12;11.72;49.55
77693;SHT31;66984;47.404;18.836;2023-03-20T02:11:17;11.72;49.55
77693;SHT31;66984;47.404;18.836;2023-03-20T02:12:21;11.71;49.55
77693;SHT31;66984;47.404;18.836;2023-03-20T02:13:26;11.71;49.53
77693;SHT31;66984;47.404;18.836;2023-03-20T02:14:31;11.69;49.57
77693;SHT31;66984;47.404;18.836;2023-03-20T02:15:34;11.69;49.94
77693;SHT31;66984;47.404;18.836;2023-03-20T02:16:38;11.69;49.99
77693;SHT31;66984;47.404;18.836;2023-03-20T02:17:40;11.72;49.88
77693;SHT31;66984;47.404;18.836;2023-03-20T02:18:47;11.71;50.24
77693;SHT31;66984;47.404;18.836;2023-03-20T02:20:06;11.71;50.45
77693;SHT31;66984;47.404;18.836;2023-03-20T02:38:37;11.48;51.30
77693;SHT31;66984;47.404;18.836;2023-03-20T02:40:20;11.46;51.40
77693;SHT31;66984;47.404;18.836;2023-03-20T02:43:10;11.41;51.67
77693;SHT31;66984;47.404;18.836;2023-03-20T02:44:29;11.41;51.80
77693;SHT31;66984;47.404;18.836;2023-03-20T02:47:12;11.30;52.10
77693;SHT31;66984;47.404;18.836;2023-03-20T02:49:53;11.25;52.29
77693;SHT31;66984;47.404;18.836;2023-03-20T02:52:15;11.17;52.63
77693;SHT31;66984;47.404;18.836;2023-03-20T02:53:50;11.14;52.52
77693;SHT31;66984;47.404;18.836;2023-03-20T02:57:43;11.03;52.91
77693;SHT31;66984;47.404;18.836;2023-03-20T03:01:40;10.94;52.94
77693;SHT31;66984;47.404;18.836;2023-03-20T03:02:50;10.89;53.19
77693;SHT31;66984;47.404;18.836;2023-03-20T03:04:04;10.90;53.17
77693;SHT31;66984;47.404;18.836;2023-03-20T03:05:20;10.86;53.16
77693;SHT31;66984;47.404;18.836;2023-03-20T03:06:28;10.83;53.14
77693;SHT31;66984;47.404;18.836;2023-03-20T03:07:32;10.79;53.28
77693;SHT31;66984;47.404;18.836;2023-03-20T03:08:40;10.76;53.41
77693;SHT31;66984;47.404;18.836;2023-03-20T03:10:04;10.72;53.47
77693;SHT31;66984;47.404;18.836;2023-03-20T03:11:08;10.65;53.81
77693;SHT31;66984;47.404;18.836;2023-03-20T03:12:16;10.65;54.23
77693;SHT31;66984;47.404;18.836;2023-03-20T03:13:26;10.56;54.12
77693;SHT31;66984;47.404;18.836;2023-03-20T03:14:36;10.53;54.25
77693;SHT31;66984;47.404;18.836;2023-03-20T03:15:43;10.49;54.10
77693;SHT31;66984;47.404;18.836;2023-03-20T03:16:48;10.52;53.99
77693;SHT31;66984;47.404;18.836;2023-03-20T03:17:54;10.50;53.88
77693;SHT31;66984;47.404;18.836;2023-03-20T03:19:08;10.44;54.00
77693;SHT31;66984;47.404;18.836;2023-03-20T03:20:22;10.42;54.35
77693;SHT31;66984;47.404;18.836;2023-03-20T03:21:28;10.35;54.60
77693;SHT31;66984;47.404;18.836;2023-03-20T03:22:32;10.34;54.74
77693;SHT31;66984;47.404;18.836;2023-03-20T03:23:42;10.32;54.72
77693;SHT31;66984;47.404;18.836;2023-03-20T03:24:49;10.31;54.79
77693;SHT31;66984;47.404;18.836;2023-03-20T03:25:54;10.26;54.85
77693;SHT31;66984;47.404;18.836;2023-03-20T03:27:01;10.21;54.76
77693;SHT31;66984;47.404;18.836;2023-03-20T03:28:30;10.19;54.79
77693;SHT31;66984;47.404;18.836;2023-03-20T03:29:39;10.16;54.70
77693;SHT31;66984;47.404;18.836;2023-03-20T03:30:43;10.11;54.98
77693;SHT31;66984;47.404;18.836;2023-03-20T03:31:47;10.08;54.90
77693;SHT31;66984;47.404;18.836;2023-03-20T03:33:07;10.02;55.15
77693;SHT31;66984;47.404;18.836;2023-03-20T03:34:14;9.98;55.20
77693;SHT31;66984;47.404;18.836;2023-03-20T03:35:19;9.95;55.22
77693;SHT31;66984;47.404;18.836;2023-03-20T03:39:50;9.84;55.17
77693;SHT31;66984;47.404;18.836;2023-03-20T03:41:06;9.81;55.09
77693;SHT31;66984;47.404;18.836;2023-03-20T03:43:38;9.73;55.64
77693;SHT31;66984;47.404;18.836;2023-03-20T03:45:28;9.69;55.52
77693;SHT31;66984;47.404;18.836;2023-03-20T03:46:41;9.63;55.51
77693;SHT31;66984;47.404;18.836;2023-03-20T03:47:52;9.60;55.82
77693;SHT31;66984;47.404;18.836;2023-03-20T03:48:57;9.58;55.47
77693;SHT31;66984;47.404;18.836;2023-03-20T03:50:06;9.56;55.49
77693;SHT31;66984;47.404;18.836;2023-03-20T03:51:14;9.53;55.69
77693;SHT31;66984;47.404;18.836;2023-03-20T03:52:21;9.47;55.47
77693;SHT31;66984;47.404;18.836;2023-03-20T03:53:30;9.44;55.49
77693;SHT31;66984;47.404;18.836;2023-03-20T03:54:39;9.43;55.34
77693;SHT31;66984;47.404;18.836;2023-03-20T03:55:47;9.40;55.46
77693;SHT31;66984;47.404;18.836;2023-03-20T03:56:53;9.39;55.57
77693;SHT31;66984;47.404;18.836;2023-03-20T03:58:02;9.37;55.49
77693;SHT31;66984;47.404;18.836;2023-03-20T03:59:13;9.36;55.19
77693;SHT31;66984;47.404;18.836;2023-03-20T04:00:22;9.35;55.13
77693;SHT31;66984;47.404;18.836;2023-03-20T04:01:27;9.29;55.17
77693;SHT31;66984;47.404;18.836;2023-03-20T04:02:31;9.29;55.32
77693;SHT31;66984;47.404;18.836;2023-03-20T04:03:39;9.26;55.50
77693;SHT31;66984;47.404;18.836;2023-03-20T04:04:44;9.26;55.42
77693;SHT31;66984;47.404;18.836;2023-03-20T04:05:51;9.25;55.45
77693;SHT31;66984;47.404;18.836;2023-03-20T04:06:55;9.20;55.64
77693;SHT31;66984;47.404;18.836;2023-03-20T04:07:59;9.20;55.92
77693;SHT31;66984;47.404;18.836;2023-03-20T04:09:02;9.22;56.05
77693;SHT31;66984;47.404;18.836;2023-03-20T04:10:05;9.18;56.32
77693;SHT31;66984;47.404;18.836;2023-03-20T04:11:21;9.16;56.40
77693;SHT31;66984;47.404;18.836;2023-03-20T04:12:36;9.12;56.78
77693;SHT31;66984;47.404;18.836;2023-03-20T04:13:39;9.12;56.74
77693;SHT31;66984;47.404;18.836;2023-03-20T04:14:42;9.11;56.78
77693;SHT31;66984;47.404;18.836;2023-03-20T04:15:44;9.15;56.88
77693;SHT31;66984;47.404;18.836;2023-03-20T04:16:47;9.12;57.04
77693;SHT31;66984;47.404;18.836;2023-03-20T04:17:50;9.11;57.15
77693;SHT31;66984;47.404;18.836;2023-03-20T04:18:53;9.07;57.31
77693;SHT31;66984;47.404;18.836;2023-03-20T04:19:57;9.07;57.24
77693;SHT31;66984;47.404;18.836;2023-03-20T04:20:59;9.07;57.13
77693;SHT31;66984;47.404;18.836;2023-03-20T04:22:03;9.07;57.06
77693;SHT31;66984;47.404;18.836;2023-03-20T04:23:05;9.07;56.85
77693;SHT31;66984;47.404;18.836;2023-03-20T04:24:09;9.08;56.77
77693;SHT31;66984;47.404;18.836;2023-03-20T04:25:21;9.04;57.07
77693;SHT31;66984;47.404;18.836;2023-03-20T04:26:24;9.04;57.36
77693;SHT31;66984;47.404;18.836;2023-03-20T04:27:27;9.01;57.47
77693;SHT31;66984;47.404;18.836;2023-03-20T04:28:30;8.98;57.42
77693;SHT31;66984;47.404;18.836;2023-03-20T04:29:33;9.01;57.35
77693;SHT31;66984;47.404;18.836;2023-03-20T04:30:39;8.95;57.73
77693;SHT31;66984;47.404;18.836;2023-03-20T04:31:42;8.93;57.92
77693;SHT31;66984;47.404;18.836;2023-03-20T04:32:44;8.92;58.05
77693;SHT31;66984;47.404;18.836;2023-03-20T04:33:47;8.92;57.95
77693;SHT31;66984;47.404;18.836;2023-03-20T04:34:50;8.92;57.77
77693;SHT31;66984;47.404;18.836;2023-03-20T04:35:53;8.84;57.89
77693;SHT31;66984;47.404;18.836;2023-03-20T04:36:56;8.81;57.93
77693;SHT31;66984;47.404;18.836;2023-03-20T04:37:59;8.84;57.75
77693;SHT31;66984;47.404;18.836;2023-03-20T04:39:02;8.79;57.69
77693;SHT31;66984;47.404;18.836;2023-03-20T04:40:05;8.79;57.66
77693;SHT31;66984;47.404;18.836;2023-03-20T04:41:07;8.82;57.79
77693;SHT31;66984;47.404;18.836;2023-03-20T04:42:13;8.75;58.31
77693;SHT31;66984;47.404;18.836;2023-03-20T04:43:16;8.75;58.39
77693;SHT31;66984;47.404;18.836;2023-03-20T04:44:19;8.71;58.31
77693;SHT31;66984;47.404;18.836;2023-03-20T04:45:21;8.72;58.41
77693;SHT31;66984;47.404;18.836;2023-03-20T04:46:24;8.68;58.35
77693;SHT31;66984;47.404;18.836;2023-03-20T04:47:27;8.64;58.59
77693;SHT31;66984;47.404;18.836;2023-03-20T04:48:30;8.57;58.56
77693;SHT31;66984;47.404;18.836;2023-03-20T04:49:33;8.58;58.54
77693;SHT31;66984;47.404;18.836;2023-03-20T04:50:36;8.54;58.55
77693;SHT31;66984;47.404;18.836;2023-03-20T04:51:38;8.51;58.64
77693;SHT31;66984;47.404;18.836;2023-03-20T04:52:42;8.50;58.45
77693;SHT31;66984;47.404;18.836;2023-03-20T04:53:44;8.49;58.45
77693;SHT31;66984;47.404;18.836;2023-03-20T04:54:47;8.46;58.35
77693;SHT31;66984;47.404;18.836;2023-03-20T04:55:50;8.44;58.28
77693;SHT31;66984;47.404;18.836;2023-03-20T04:56:52;8.49;58.33
77693;SHT31;66984;47.404;18.836;2023-03-20T04:57:55;8.49;58.44
77693;SHT31;66984;47.404;18.836;2023-03-20T04:58:58;8.46;58.42
77693;SHT31;66984;47.404;18.836;2023-03-20T05:00:00;8.46;58.22
77693;SHT31;66984;47.404;18.836;2023-03-20T05:01:03;8.44;58.15
77693;SHT31;66984;47.404;18.836;2023-03-20T05:02:07;8.41;58.57
77693;SHT31;66984;47.404;18.836;2023-03-20T05:03:09;8.44;58.58
77693;SHT31;66984;47.404;18.836;2023-03-20T05:04:12;8.39;58.45
77693;SHT31;66984;47.404;18.836;2023-03-20T05:05:15;8.32;58.70
77693;SHT31;66984;47.404;18.836;2023-03-20T05:06:18;8.29;58.87
77693;SHT31;66984;47.404;18.836;2023-03-20T05:07:21;8.32;59.18
77693;SHT31;66984;47.404;18.836;2023-03-20T05:08:24;8.28;59.14
77693;SHT31;66984;47.404;18.836;2023-03-20T05:09:27;8.23;59.16
77693;SHT31;66984;47.404;18.836;2023-03-20T05:10:29;8.23;59.06
77693;SHT31;66984;47.404;18.836;2023-03-20T05:11:33;8.25;58.73
77693;SHT31;66984;47.404;18.836;2023-03-20T05:12:35;8.26;58.63
77693;SHT31;66984;47.404;18.836;2023-03-20T05:13:38;8.23;58.74
77693;SHT31;66984;47.404;18.836;2023-03-20T05:14:41;8.22;59.14
77693;SHT31;66984;47.404;18.836;2023-03-20T05:15:43;8.20;59.03
77693;SHT31;66984;47.404;18.836;2023-03-20T05:16:46;8.19;59.18
77693;SHT31;66984;47.404;18.836;2023-03-20T05:17:49;8.22;59.30
77693;SHT31;66984;47.404;18.836;2023-03-20T05:18:52;8.19;59.48
77693;SHT31;66984;47.404;18.836;2023-03-20T05:19:54;8.20;59.45
77693;SHT31;66984;47.404;18.836;2023-03-20T05:20:58;8.17;59.40
77693;SHT31;66984;47.404;18.836;2023-03-20T05:22:01;8.14;59.74
77693;SHT31;66984;47.404;18.836;2023-03-20T05:23:04;8.13;59.63
77693;SHT31;66984;47.404;18.836;2023-03-20T05:24:07;8.13;59.70
77693;SHT31;66984;47.404;18.836;2023-03-20T05:25:09;8.14;59.57
77693;SHT31;66984;47.404;18.836;2023-03-20T05:26:12;8.12;59.67
77693;SHT31;66984;47.404;18.836;2023-03-20T05:27:15;8.09;59.61
77693;SHT31;66984;47.404;18.836;2023-03-20T05:28:17;8.06;59.79
77693;SHT31;66984;47.404;18.836;2023-03-20T05:29:21;8.07;59.92
77693;SHT31;66984;47.404;18.836;2023-03-20T05:30:24;8.03;60.26
77693;SHT31;66984;47.404;18.836;2023-03-20T05:31:27;8.03;60.49
77693;SHT31;66984;47.404;18.836;2023-03-20T05:32:30;8.03;60.28
77693;SHT31;66984;47.404;18.836;2023-03-20T05:33:32;8.03;60.22
77693;SHT31;66984;47.404;18.836;2023-03-20T05:34:38;8.03;59.79
77693;SHT31;66984;47.404;18.836;2023-03-20T05:35:41;8.03;59.69
77693;SHT31;66984;47.404;18.836;2023-03-20T05:36:43;8.03;59.82
77693;SHT31;66984;47.404;18.836;2023-03-20T05:37:46;8.06;59.80
77693;SHT31;66984;47.404;18.836;2023-03-20T05:38:49;8.12;59.69
77693;SHT31;66984;47.404;18.836;2023-03-20T05:39:52;8.10;59.52
77693;SHT31;66984;47.404;18.836;2023-03-20T05:40:58;8.10;59.55
77693;SHT31;66984;47.404;18.836;2023-03-20T05:42:01;8.06;59.94
77693;SHT31;66984;47.404;18.836;2023-03-20T05:43:04;8.07;60.06
77693;SHT31;66984;47.404;18.836;2023-03-20T05:44:07;8.10;59.86
77693;SHT31;66984;47.404;18.836;2023-03-20T05:45:10;8.07;59.89
77693;SHT31;66984;47.404;18.836;2023-03-20T05:46:13;8.05;60.16
77693;SHT31;66984;47.404;18.836;2023-03-20T05:47:15;8.06;60.04
77693;SHT31;66984;47.404;18.836;2023-03-20T05:48:18;8.05;60.17
77693;SHT31;66984;47.404;18.836;2023-03-20T05:49:21;8.05;60.09
77693;SHT31;66984;47.404;18.836;2023-03-20T05:50:24;8.03;60.08
77693;SHT31;66984;47.404;18.836;2023-03-20T05:51:26;8.05;59.96
77693;SHT31;66984;47.404;18.836;2023-03-20T05:52:29;8.06;60.04
77693;SHT31;66984;47.404;18.836;2023-03-20T05:53:33;8.07;60.05
77693;SHT31;66984;47.404;18.836;2023-03-20T05:54:36;8.07;60.27
77693;SHT31;66984;47.404;18.836;2023-03-20T05:55:38;8.07;60.18
77693;SHT31;66984;47.404;18.836;2023-03-20T05:56:42;8.12;60.18
77693;SHT31;66984;47.404;18.836;2023-03-20T05:57:45;8.16;60.25
77693;SHT31;66984;47.404;18.836;2023-03-20T05:58:48;8.13;60.34
77693;SHT31;66984;47.404;18.836;2023-03-20T05:59:51;8.17;61.11
77693;SHT31;66984;47.404;18.836;2023-03-20T06:00:56;8.13;60.92
77693;SHT31;66984;47.404;18.836;2023-03-20T06:01:59;8.16;60.59
77693;SHT31;66984;47.404;18.836;2023-03-20T06:03:02;8.19;60.43
77693;SHT31;66984;47.404;18.836;2023-03-20T06:04:05;8.25;60.27
77693;SHT31;66984;47.404;18.836;2023-03-20T06:05:09;8.25;60.54
77693;SHT31;66984;47.404;18.836;2023-03-20T06:06:12;8.26;60.61
77693;SHT31;66984;47.404;18.836;2023-03-20T06:07:15;8.28;60.65
77693;SHT31;66984;47.404;18.836;2023-03-20T06:08:18;8.34;60.72
77693;SHT31;66984;47.404;18.836;2023-03-20T06:09:54;8.33;60.53
77693;SHT31;66984;47.404;18.836;2023-03-20T06:10:57;8.41;60.51
77693;SHT31;66984;47.404;18.836;2023-03-20T06:12:00;8.44;60.24
77693;SHT31;66984;47.404;18.836;2023-03-20T06:13:03;8.50;60.21
77693;SHT31;66984;47.404;18.836;2023-03-20T06:14:06;8.50;60.23
77693;SHT31;66984;47.404;18.836;2023-03-20T06:15:09;8.50;60.25
77693;SHT31;66984;47.404;18.836;2023-03-20T06:16:11;8.56;60.20
77693;SHT31;66984;47.404;18.836;2023-03-20T06:17:15;8.60;60.27
77693;SHT31;66984;47.404;18.836;2023-03-20T06:18:18;8.64;60.07
77693;SHT31;66984;47.404;18.836;2023-03-20T06:19:21;8.70;60.16
77693;SHT31;66984;47.404;18.836;2023-03-20T06:20:24;8.72;60.16
77693;SHT31;66984;47.404;18.836;2023-03-20T06:21:27;8.81;60.05
77693;SHT31;66984;47.404;18.836;2023-03-20T06:22:30;8.85;63.11
77693;SHT31;66984;47.404;18.836;2023-03-20T06:23:33;8.91;62.18
77693;SHT31;66984;47.404;18.836;2023-03-20T06:24:36;8.98;61.31
77693;SHT31;66984;47.404;18.836;2023-03-20T06:25:39;9.04;60.11
77693;SHT31;66984;47.404;18.836;2023-03-20T06:26:42;9.07;59.69
77693;SHT31;66984;47.404;18.836;2023-03-20T06:27:46;9.11;59.46
77693;SHT31;66984;47.404;18.836;2023-03-20T06:28:49;9.18;59.26
77693;SHT31;66984;47.404;18.836;2023-03-20T06:29:51;9.25;59.13
77693;SHT31;66984;47.404;18.836;2023-03-20T06:30:54;9.25;58.67
77693;SHT31;66984;47.404;18.836;2023-03-20T06:31:57;9.28;58.68
77693;SHT31;66984;47.404;18.836;2023-03-20T06:33:00;9.29;58.66
77693;SHT31;66984;47.404;18.836;2023-03-20T06:34:03;9.29;58.60
77693;SHT31;66984;47.404;18.836;2023-03-20T06:35:06;9.33;58.40
77693;SHT31;66984;47.404;18.836;2023-03-20T06:36:09;9.36;57.89
77693;SHT31;66984;47.404;18.836;2023-03-20T06:37:12;9.39;58.16
77693;SHT31;66984;47.404;18.836;2023-03-20T06:38:14;9.42;57.83
77693;SHT31;66984;47.404;18.836;2023-03-20T06:39:18;9.44;57.95
77693;SHT31;66984;47.404;18.836;2023-03-20T06:40:20;9.47;58.00
77693;SHT31;66984;47.404;18.836;2023-03-20T06:41:24;9.50;58.13
77693;SHT31;66984;47.404;18.836;2023-03-20T06:42:34;9.57;58.31
77693;SHT31;66984;47.404;18.836;2023-03-20T06:43:37;9.63;58.65
77693;SHT31;66984;47.404;18.836;2023-03-20T06:44:41;9.67;58.13
77693;SHT31;66984;47.404;18.836;2023-03-20T06:45:44;9.73;57.84
77693;SHT31;66984;47.404;18.836;2023-03-20T06:46:47;9.77;57.55
77693;SHT31;66984;47.404;18.836;2023-03-20T06:47:49;9.84;57.46
77693;SHT31;66984;47.404;18.836;2023-03-20T06:48:52;9.87;57.29
77693;SHT31;66984;47.404;18.836;2023-03-20T06:49:55;9.94;57.36
77693;SHT31;66984;47.404;18.836;2023-03-20T06:50:58;9.97;57.05
77693;SHT31;66984;47.404;18.836;2023-03-20T06:52:18;9.98;56.66
77693;SHT31;66984;47.404;18.836;2023-03-20T06:53:23;10.07;56.68
77693;SHT31;66984;47.404;18.836;2023-03-20T06:54:26;10.15;56.44
77693;SHT31;66984;47.404;18.836;2023-03-20T06:55:28;10.16;56.38
77693;SHT31;66984;47.404;18.836;2023-03-20T06:56:31;10.26;56.17
77693;SHT31;66984;47.404;18.836;2023-03-20T06:57:34;10.32;55.54
77693;SHT31;66984;47.404;18.836;2023-03-20T06:58:37;10.36;55.45
77693;SHT31;66984;47.404;18.836;2023-03-20T06:59:40;10.42;55.64
77693;SHT31;66984;47.404;18.836;2023-03-20T07:00:43;10.48;55.42
77693;SHT31;66984;47.404;18.836;2023-03-20T07:01:46;10.50;55.87
77693;SHT31;66984;47.404;18.836;2023-03-20T07:02:49;10.62;55.77
77693;SHT31;66984;47.404;18.836;2023-03-20T07:03:51;10.69;55.16
77693;SHT31;66984;47.404;18.836;2023-03-20T07:04:54;10.73;55.03
77693;SHT31;66984;47.404;18.836;2023-03-20T07:05:57;10.84;54.60
77693;SHT31;66984;47.404;18.836;2023-03-20T07:07:00;10.89;53.96
77693;SHT31;66984;47.404;18.836;2023-03-20T07:08:03;10.96;53.99
77693;SHT31;66984;47.404;18.836;2023-03-20T07:09:06;11.01;53.79
77693;SHT31;66984;47.404;18.836;2023-03-20T07:10:09;11.07;53.87
77693;SHT31;66984;47.404;18.836;2023-03-20T07:11:13;11.18;53.91
77693;SHT31;66984;47.404;18.836;2023-03-20T07:12:16;11.21;53.48
77693;SHT31;66984;47.404;18.836;2023-03-20T07:13:21;11.28;53.43
77693;SHT31;66984;47.404;18.836;2023-03-20T07:14:24;11.34;53.18
77693;SHT31;66984;47.404;18.836;2023-03-20T07:15:27;11.41;52.74
77693;SHT31;66984;47.404;18.836;2023-03-20T07:16:31;11.46;52.05
77693;SHT31;66984;47.404;18.836;2023-03-20T07:17:34;11.52;52.29
77693;SHT31;66984;47.404;18.836;2023-03-20T07:18:37;11.55;52.52
77693;SHT31;66984;47.404;18.836;2023-03-20T07:19:39;11.61;52.05
77693;SHT31;66984;47.404;18.836;2023-03-20T07:20:42;11.65;51.87
77693;SHT31;66984;47.404;18.836;2023-03-20T07:21:45;11.68;51.63
77693;SHT31;66984;47.404;18.836;2023-03-20T07:22:48;11.72;51.23
77693;SHT31;66984;47.404;18.836;2023-03-20T07:23:51;11.76;51.52
77693;SHT31;66984;47.404;18.836;2023-03-20T07:24:54;11.82;51.78
77693;SHT31;66984;47.404;18.836;2023-03-20T07:25:57;11.86;51.96
77693;SHT31;66984;47.404;18.836;2023-03-20T07:27:00;11.90;51.88